createdAt,value
2023-03-15T00:01:34.459Z,10.06
2023-03-15T00:04:06.154Z,9.92
2023-03-15T00:06:34.740Z,10.07
2023-03-15T00:09:03.390Z,10.03
2023-03-15T00:11:32.463Z,10.03
2023-03-15T00:14:02.641Z,9.95
2023-03-15T00:16:33.029Z,9.88
2023-03-15T00:19:01.788Z,9.76
2023-03-15T00:21:31.630Z,9.99
2023-03-15T00:23:59.861Z,9.93
2023-03-15T00:26:28.251Z,9.95
2023-03-15T00:28:56.480Z,9.73
2023-03-15T00:31:26.395Z,9.78
2023-03-15T00:33:55.276Z,9.84
2023-03-15T00:36:25.776Z,9.73
2023-03-15T00:38:57.157Z,9.71
2023-03-15T00:41:25.919Z,9.90
2023-03-15T00:43:54.500Z,9.94
2023-03-15T00:46:22.703Z,9.79
2023-03-15T00:48:53.898Z,9.48
2023-03-15T00:51:24.444Z,9.84
2023-03-15T00:53:55.321Z,9.83
2023-03-15T00:56:25.376Z,9.97
2023-03-15T00:58:54.182Z,9.84
2023-03-15T01:01:24.507Z,9.81
2023-03-15T01:03:53.274Z,9.42
2023-03-15T01:06:23.846Z,9.76
2023-03-15T01:08:52.715Z,9.64
2023-03-15T01:11:25.856Z,9.81
2023-03-15T01:13:55.179Z,9.79
2023-03-15T01:16:23.873Z,9.73
2023-03-15T01:18:52.826Z,9.77
2023-03-15T01:21:22.269Z,9.54
2023-03-15T01:23:50.859Z,9.72
2023-03-15T01:26:19.431Z,9.58
2023-03-15T01:28:49.079Z,9.73
2023-03-15T01:31:20.908Z,9.71
2023-03-15T01:33:49.334Z,9.27
2023-03-15T01:36:17.668Z,9.52
2023-03-15T01:38:46.707Z,9.74
2023-03-15T01:41:15.655Z,9.80
2023-03-15T01:43:47.495Z,9.63
2023-03-15T01:46:34.890Z,9.62
2023-03-15T01:49:08.706Z,9.54
2023-03-15T01:51:41.800Z,9.51
2023-03-15T01:54:14.969Z,9.57
2023-03-15T01:56:47.743Z,8.63
2023-03-15T01:59:20.659Z,9.51
2023-03-15T02:01:54.684Z,9.55
2023-03-15T02:04:26.148Z,9.50
2023-03-15T02:06:59.415Z,9.53
2023-03-15T02:09:31.994Z,9.55
2023-03-15T02:12:01.086Z,9.49
2023-03-15T02:14:30.306Z,9.64
2023-03-15T02:17:00.055Z,9.57
2023-03-15T02:19:41.737Z,9.46
2023-03-15T02:22:23.815Z,9.43
2023-03-15T02:25:00.158Z,8.62
2023-03-15T02:27:34.570Z,9.42
2023-03-15T02:30:05.381Z,9.29
2023-03-15T02:32:33.676Z,9.40
2023-03-15T02:35:01.904Z,9.43
2023-03-15T02:37:30.103Z,9.40
2023-03-15T02:39:58.236Z,9.40
2023-03-15T02:42:27.000Z,9.34
2023-03-15T02:44:58.902Z,9.33
2023-03-15T02:47:31.643Z,9.28
2023-03-15T02:49:59.909Z,9.23
2023-03-15T02:52:28.157Z,9.03
2023-03-15T02:54:56.300Z,9.33
2023-03-15T02:57:24.502Z,9.09
2023-03-15T02:59:52.690Z,9.18
2023-03-15T03:02:23.925Z,8.97
2023-03-15T03:04:52.770Z,9.07
2023-03-15T03:07:20.936Z,9.13
2023-03-15T03:09:49.138Z,9.13
2023-03-15T03:12:17.300Z,8.97
2023-03-15T03:14:45.537Z,9.11
2023-03-15T03:17:13.749Z,9.08
2023-03-15T03:19:43.458Z,9.06
2023-03-15T03:22:13.387Z,9.16
2023-03-15T03:24:46.243Z,9.22
2023-03-15T03:27:15.276Z,8.91
2023-03-15T03:29:43.597Z,9.10
2023-03-15T03:32:12.219Z,9.22
2023-03-15T03:34:40.341Z,9.25
2023-03-15T03:37:10.032Z,9.21
2023-03-15T03:39:38.220Z,9.10
2023-03-15T03:42:06.895Z,8.94
2023-03-15T03:44:35.119Z,9.02
2023-03-15T03:47:03.364Z,9.10
2023-03-15T03:49:31.574Z,9.00
2023-03-15T03:52:00.493Z,8.94
2023-03-15T03:54:32.253Z,8.80
2023-03-15T03:57:00.438Z,8.90
2023-03-15T03:59:28.631Z,8.82
2023-03-15T04:01:56.784Z,8.85
2023-03-15T04:04:26.483Z,8.77
2023-03-15T04:06:54.726Z,8.38
2023-03-15T04:09:25.153Z,8.61
2023-03-15T04:11:54.751Z,8.76
2023-03-15T04:14:23.026Z,7.77
2023-03-15T04:16:51.181Z,8.60
2023-03-15T04:19:19.417Z,8.67
2023-03-15T04:21:47.835Z,8.63
2023-03-15T04:24:16.049Z,8.64
2023-03-15T04:26:44.215Z,8.67
2023-03-15T04:29:15.377Z,8.71
2023-03-15T04:31:43.653Z,8.75
2023-03-15T04:34:11.883Z,8.65
2023-03-15T04:36:40.092Z,8.55
2023-03-15T04:39:08.319Z,7.99
2023-03-15T04:41:36.963Z,8.47
2023-03-15T04:44:05.881Z,8.54
2023-03-15T04:46:35.602Z,8.54
2023-03-15T04:49:06.149Z,8.56
2023-03-15T04:51:35.170Z,8.54
2023-03-15T04:54:04.325Z,8.47
2023-03-15T04:56:32.584Z,8.38
2023-03-15T04:59:00.821Z,8.31
2023-03-15T05:01:32.129Z,8.39
2023-03-15T05:04:01.647Z,8.46
2023-03-15T05:06:30.443Z,8.54
2023-03-15T05:08:58.663Z,8.59
2023-03-15T05:11:27.061Z,8.48
2023-03-15T05:13:55.290Z,8.62
2023-03-15T05:16:23.589Z,8.63
2023-03-15T05:18:51.756Z,8.74
2023-03-15T05:21:21.215Z,7.54
2023-03-15T05:23:49.411Z,8.23
2023-03-15T05:26:17.546Z,8.77
2023-03-15T05:28:46.000Z,8.75
2023-03-15T05:31:14.313Z,8.74
2023-03-15T05:33:47.185Z,8.74
2023-03-15T05:36:15.833Z,8.77
2023-03-15T05:38:45.789Z,8.71
2023-03-15T05:41:18.433Z,8.86
2023-03-15T05:43:46.722Z,8.87
2023-03-15T05:46:15.032Z,8.93
2023-03-15T05:48:43.473Z,8.98
2023-03-15T05:51:13.364Z,8.99
2023-03-15T05:53:41.640Z,9.00
2023-03-15T05:56:11.570Z,9.09
2023-03-15T05:58:40.072Z,9.06
2023-03-15T06:01:08.277Z,9.06
2023-03-15T06:03:36.642Z,9.11
2023-03-15T06:06:05.279Z,9.14
2023-03-15T06:08:33.476Z,9.04
2023-03-15T06:11:01.743Z,9.14
2023-03-15T06:13:31.526Z,8.11
2023-03-15T06:15:59.676Z,9.11
2023-03-15T06:18:27.831Z,9.12
2023-03-15T06:23:24.791Z,9.10
2023-03-15T06:25:53.013Z,9.09
2023-03-15T06:28:21.266Z,8.95
2023-03-15T06:30:50.929Z,8.84
2023-03-15T06:33:19.264Z,8.64
2023-03-15T06:35:48.109Z,8.99
2023-03-15T06:38:16.379Z,8.99
2023-03-15T06:40:45.457Z,8.87
2023-03-15T06:43:19.572Z,8.50
2023-03-15T06:45:48.581Z,9.01
2023-03-15T06:48:18.661Z,9.01
2023-03-15T06:50:47.864Z,9.00
2023-03-15T06:53:16.382Z,9.04
2023-03-15T06:55:44.825Z,8.90
2023-03-15T06:58:13.237Z,8.66
2023-03-15T07:00:41.717Z,8.46
2023-03-15T07:03:09.966Z,9.02
2023-03-15T07:05:39.600Z,8.79
2023-03-15T07:08:07.887Z,8.95
2023-03-15T07:10:36.574Z,8.97
2023-03-15T07:13:07.044Z,8.85
2023-03-15T07:15:37.669Z,9.02
2023-03-15T07:18:05.930Z,9.08
2023-03-15T07:20:36.226Z,8.84
2023-03-15T07:23:07.217Z,9.20
2023-03-15T07:25:48.353Z,9.08
2023-03-15T07:28:23.031Z,7.93
2023-03-15T07:30:55.568Z,9.25
2023-03-15T07:33:24.762Z,9.23
2023-03-15T07:35:54.687Z,8.03
2023-03-15T07:38:25.290Z,9.21
2023-03-15T07:40:53.841Z,8.98
2023-03-15T07:43:22.539Z,9.27
2023-03-15T07:45:51.050Z,9.07
2023-03-15T07:48:19.463Z,9.32
2023-03-15T07:50:47.819Z,8.82
2023-03-15T07:53:16.384Z,9.32
2023-03-15T07:55:48.718Z,8.71
2023-03-15T07:58:20.122Z,9.44
2023-03-15T08:00:48.826Z,9.53
2023-03-15T08:03:17.202Z,9.49
2023-03-15T08:05:45.345Z,9.62
2023-03-15T08:08:13.484Z,9.73
2023-03-15T08:10:41.664Z,9.77
2023-03-15T08:13:11.188Z,9.84
2023-03-15T08:15:39.344Z,9.89
2023-03-15T08:18:07.542Z,9.95
2023-03-15T08:20:35.828Z,9.96
2023-03-15T08:23:04.016Z,10.17
2023-03-15T08:25:32.270Z,10.19
2023-03-15T08:28:00.411Z,10.07
2023-03-15T08:30:30.251Z,10.14
2023-03-15T08:32:58.479Z,10.05
2023-03-15T08:35:26.774Z,10.50
2023-03-15T08:37:55.576Z,10.73
2023-03-15T08:40:26.583Z,10.49
2023-03-15T08:42:55.504Z,10.35
2023-03-15T08:45:24.269Z,10.42
2023-03-15T08:47:56.444Z,10.17
2023-03-15T08:50:25.215Z,10.24
2023-03-15T08:52:53.475Z,10.30
2023-03-15T08:55:21.788Z,9.27
2023-03-15T08:57:50.036Z,10.57
2023-03-15T09:00:20.942Z,10.61
2023-03-15T09:02:50.051Z,10.69
2023-03-15T09:05:19.985Z,10.51
2023-03-15T09:07:48.958Z,9.65
2023-03-15T09:10:18.641Z,10.45
2023-03-15T09:12:49.571Z,10.43
2023-03-15T09:15:19.338Z,10.35
2023-03-15T09:17:47.735Z,10.29
2023-03-15T09:20:16.931Z,10.30
2023-03-15T09:22:52.611Z,10.18
2023-03-15T09:25:21.289Z,10.18
2023-03-15T09:27:49.895Z,10.05
2023-03-15T09:30:19.013Z,10.30
2023-03-15T09:32:47.313Z,10.22
2023-03-15T09:35:17.787Z,9.44
2023-03-15T09:37:47.539Z,10.05
2023-03-15T09:40:21.189Z,10.08
2023-03-15T09:42:58.536Z,10.18
2023-03-15T09:45:33.311Z,10.24
2023-03-15T09:48:07.230Z,10.19
2023-03-15T09:50:42.685Z,10.39
2023-03-15T09:53:16.921Z,10.40
2023-03-15T09:55:48.309Z,10.33
2023-03-15T09:58:20.918Z,10.22
2023-03-15T10:00:52.384Z,10.36
2023-03-15T10:03:28.640Z,10.20
2023-03-15T10:06:00.220Z,10.01
2023-03-15T10:08:29.956Z,9.90
2023-03-15T10:11:15.931Z,9.97
2023-03-15T10:13:59.782Z,9.77
2023-03-15T10:16:39.506Z,9.74
2023-03-15T10:19:17.335Z,9.76
2023-03-15T10:21:55.758Z,9.49
2023-03-15T10:24:34.063Z,8.99
2023-03-15T10:27:15.491Z,8.61
2023-03-15T10:29:44.477Z,8.53
2023-03-15T10:32:19.101Z,8.54
2023-03-15T10:34:51.054Z,8.53
2023-03-15T10:37:19.491Z,8.65
2023-03-15T10:39:53.546Z,8.90
2023-03-15T10:42:30.282Z,8.89
2023-03-15T10:45:00.415Z,9.05
2023-03-15T10:47:29.349Z,9.18
2023-03-15T10:49:59.110Z,9.19
2023-03-15T10:52:35.817Z,9.32
2023-03-15T10:55:12.381Z,9.17
2023-03-15T10:57:43.340Z,9.09
2023-03-15T11:00:31.296Z,9.74
2023-03-15T11:03:04.713Z,9.91
2023-03-15T11:05:38.253Z,9.91
2023-03-15T11:08:14.374Z,9.79
2023-03-15T11:10:45.477Z,10.32
2023-03-15T11:13:20.622Z,9.90
2023-03-15T11:15:56.182Z,9.89
2023-03-15T11:18:29.640Z,9.76
2023-03-15T11:20:59.913Z,9.87
2023-03-15T11:23:31.060Z,9.82
2023-03-15T11:26:01.479Z,8.64
2023-03-15T11:28:32.313Z,9.55
2023-03-15T11:31:02.013Z,9.54
2023-03-15T11:33:42.693Z,9.30
2023-03-15T11:36:17.482Z,9.46
2023-03-15T11:38:46.721Z,9.49
2023-03-15T11:41:29.028Z,8.85
2023-03-15T11:44:05.025Z,9.13
2023-03-15T11:46:37.525Z,9.32
2023-03-15T11:49:17.050Z,9.49
2023-03-15T11:51:45.427Z,9.71
2023-03-15T11:54:16.140Z,9.93
2023-03-15T11:57:05.491Z,9.99
2023-03-15T11:59:35.850Z,10.01
2023-03-15T12:02:38.556Z,9.90
2023-03-15T12:05:17.985Z,10.25
2023-03-15T12:08:01.256Z,10.04
2023-03-15T12:10:46.621Z,9.65
2023-03-15T12:13:24.331Z,10.44
2023-03-15T12:15:53.356Z,10.82
2023-03-15T12:18:44.321Z,10.84
2023-03-15T12:21:16.743Z,10.95
2023-03-15T12:23:50.034Z,11.02
2023-03-15T12:26:41.773Z,10.97
2023-03-15T12:29:18.113Z,10.86
2023-03-15T12:31:57.702Z,10.01
2023-03-15T12:34:31.849Z,10.50
2023-03-15T12:37:05.891Z,10.76
2023-03-15T12:39:52.930Z,10.63
2023-03-15T12:43:02.081Z,10.28
2023-03-15T12:45:38.990Z,10.40
2023-03-15T12:48:31.803Z,10.25
2023-03-15T12:51:06.676Z,10.25
2023-03-15T12:53:49.450Z,9.76
2023-03-15T12:56:29.531Z,9.91
2023-03-15T12:59:05.053Z,9.50
2023-03-15T13:01:35.972Z,9.43
2023-03-15T13:04:05.209Z,9.78
2023-03-15T13:06:46.782Z,10.15
2023-03-15T13:09:29.043Z,10.37
2023-03-15T13:12:02.544Z,10.47
2023-03-15T13:14:43.170Z,10.33
2023-03-15T13:17:22.889Z,10.62
2023-03-15T13:19:57.334Z,10.96
2023-03-15T13:22:33.459Z,11.13
2023-03-15T13:25:11.008Z,11.47
2023-03-15T13:27:51.135Z,11.93
2023-03-15T13:30:32.265Z,11.94
2023-03-15T13:33:22.640Z,12.60
2023-03-15T13:35:57.490Z,12.29
2023-03-15T13:38:28.777Z,13.16
2023-03-15T13:40:58.558Z,13.05
2023-03-15T13:43:28.874Z,12.91
2023-03-15T13:45:58.844Z,13.00
2023-03-15T13:48:34.433Z,13.34
2023-03-15T13:51:07.310Z,12.74
2023-03-15T13:53:48.907Z,12.26
2023-03-15T13:56:20.208Z,11.96
2023-03-15T13:58:50.288Z,10.86
2023-03-15T14:01:19.585Z,11.68
2023-03-15T14:03:56.853Z,11.45
2023-03-15T14:06:27.747Z,11.68
2023-03-15T14:09:02.224Z,11.81
2023-03-15T14:11:37.442Z,12.68
2023-03-15T14:14:23.311Z,12.80
2023-03-15T14:17:04.330Z,13.62
2023-03-15T14:19:37.172Z,14.12
2023-03-15T14:22:14.070Z,14.36
2023-03-15T14:24:44.509Z,14.85
2023-03-15T14:27:18.053Z,14.55
2023-03-15T14:29:48.960Z,15.57
2023-03-15T14:32:28.390Z,15.15
2023-03-15T14:35:08.163Z,15.90
2023-03-15T14:37:39.264Z,16.13
2023-03-15T14:40:21.172Z,15.45
2023-03-15T14:42:50.810Z,14.40
2023-03-15T14:45:22.302Z,13.55
2023-03-15T14:47:57.177Z,13.38
2023-03-15T14:50:31.033Z,13.04
2023-03-15T14:53:00.184Z,12.57
2023-03-15T14:55:33.635Z,12.61
2023-03-15T14:58:02.228Z,12.17
2023-03-15T15:00:31.308Z,12.92
2023-03-15T15:03:00.181Z,13.82
2023-03-15T15:05:31.646Z,15.24
2023-03-15T15:08:05.020Z,17.22
2023-03-15T15:10:35.008Z,18.30
2023-03-15T15:13:06.795Z,19.44
2023-03-15T15:15:53.943Z,20.64
2023-03-15T15:18:23.962Z,21.91
2023-03-15T15:20:56.247Z,22.72
2023-03-15T15:23:27.570Z,22.73
2023-03-15T15:25:59.033Z,22.33
2023-03-15T15:28:37.201Z,22.57
2023-03-15T15:31:07.544Z,22.42
2023-03-15T15:33:35.870Z,22.03
2023-03-15T15:36:11.538Z,22.99
2023-03-15T15:38:40.388Z,23.72
2023-03-15T15:41:14.915Z,23.85
2023-03-15T15:43:43.972Z,23.04
2023-03-15T15:46:13.801Z,21.62
2023-03-15T15:48:42.488Z,20.72
2023-03-15T15:51:27.183Z,18.77
2023-03-15T15:53:59.196Z,17.25
2023-03-15T15:56:33.353Z,15.18
2023-03-15T15:59:03.182Z,13.54
2023-03-15T16:01:31.889Z,11.66
2023-03-15T16:04:01.732Z,10.30
2023-03-15T16:06:32.661Z,9.76
2023-03-15T16:09:01.074Z,9.45
2023-03-15T16:11:30.152Z,9.23
2023-03-15T16:13:58.389Z,8.82
2023-03-15T16:16:27.650Z,8.84
2023-03-15T16:18:56.109Z,8.56
2023-03-15T16:21:34.017Z,8.38
2023-03-15T16:24:07.696Z,8.27
2023-03-15T16:26:40.694Z,8.16
2023-03-15T16:29:17.684Z,8.09
2023-03-15T16:31:46.178Z,7.99
2023-03-15T16:34:16.263Z,7.83
2023-03-15T16:36:49.896Z,4.99
2023-03-15T16:39:18.767Z,7.28
2023-03-15T16:41:47.023Z,7.14
2023-03-15T16:44:16.917Z,7.42
2023-03-15T16:46:45.342Z,7.33
2023-03-15T16:49:15.539Z,7.33
2023-03-15T16:51:49.139Z,7.34
2023-03-15T16:54:30.624Z,7.24
2023-03-15T16:57:12.751Z,7.18
2023-03-15T16:59:41.076Z,7.14
2023-03-15T17:02:18.736Z,7.07
2023-03-15T17:04:47.206Z,7.17
2023-03-15T17:07:17.779Z,7.09
2023-03-15T17:09:48.208Z,6.61
2023-03-15T17:12:22.665Z,6.94
2023-03-15T17:14:51.998Z,6.87
2023-03-15T17:17:20.234Z,6.94
2023-03-15T17:19:49.462Z,6.11
2023-03-15T17:22:19.725Z,6.06
2023-03-15T17:24:48.644Z,6.73
2023-03-15T17:27:23.873Z,6.84
2023-03-15T17:29:52.680Z,6.71
2023-03-15T17:32:21.029Z,6.62
2023-03-15T17:34:49.337Z,6.62
2023-03-15T17:37:20.058Z,6.25
2023-03-15T17:39:48.860Z,6.53
2023-03-15T17:42:17.298Z,6.44
2023-03-15T17:44:45.496Z,6.42
2023-03-15T17:47:14.216Z,6.42
2023-03-15T17:49:42.486Z,6.47
2023-03-15T17:52:17.416Z,6.25
2023-03-15T17:54:47.780Z,6.34
2023-03-15T17:57:16.062Z,6.32
2023-03-15T17:59:44.461Z,6.27
2023-03-15T18:02:16.456Z,5.99
2023-03-15T18:04:44.765Z,6.11
2023-03-15T18:07:13.247Z,6.04
2023-03-15T18:09:41.561Z,5.80
2023-03-15T18:12:15.244Z,5.95
2023-03-15T18:14:43.662Z,5.85
2023-03-15T18:17:12.446Z,5.77
2023-03-15T18:19:40.736Z,5.34
2023-03-15T18:22:18.664Z,5.45
2023-03-15T18:24:47.292Z,5.35
2023-03-15T18:27:16.932Z,5.04
2023-03-15T18:29:45.035Z,5.34
2023-03-15T18:32:13.393Z,5.19
2023-03-15T18:34:41.618Z,5.15
2023-03-15T18:37:18.015Z,4.69
2023-03-15T18:39:46.382Z,5.02
2023-03-15T18:42:14.672Z,4.97
2023-03-15T18:44:45.132Z,4.84
2023-03-15T18:47:13.958Z,4.88
2023-03-15T18:49:42.130Z,4.83
2023-03-15T18:52:13.459Z,4.94
2023-03-15T18:54:41.618Z,4.89
2023-03-15T18:57:10.265Z,4.58
2023-03-15T18:59:38.596Z,4.70
2023-03-15T19:02:09.443Z,4.63
2023-03-15T19:04:37.657Z,4.80
2023-03-15T19:07:06.091Z,4.69
2023-03-15T19:09:34.371Z,4.79
2023-03-15T19:12:03.202Z,4.59
2023-03-15T19:14:31.481Z,4.67
2023-03-15T19:17:00.289Z,4.18
2023-03-15T19:19:30.376Z,4.64
2023-03-15T19:21:59.032Z,4.46
2023-03-15T19:24:27.310Z,4.48
2023-03-15T19:26:55.478Z,4.57
2023-03-15T19:29:24.101Z,4.63
2023-03-15T19:31:52.374Z,4.62
2023-03-15T19:34:20.976Z,4.34
2023-03-15T19:36:50.676Z,4.37
2023-03-15T19:39:19.214Z,4.35
2023-03-15T19:41:47.518Z,4.28
2023-03-15T19:44:16.503Z,3.54
2023-03-15T19:46:45.461Z,3.88
2023-03-15T19:49:13.900Z,4.24
2023-03-15T19:51:42.028Z,4.23
2023-03-15T19:54:11.747Z,4.06
2023-03-15T19:56:40.099Z,4.07
2023-03-15T19:59:08.397Z,3.94
2023-03-15T20:01:36.778Z,4.00
2023-03-15T20:04:05.165Z,3.58
2023-03-15T20:06:33.415Z,3.72
2023-03-15T20:09:01.941Z,3.93
2023-03-15T20:11:31.646Z,3.96
2023-03-15T20:13:59.927Z,4.07
2023-03-15T20:16:28.194Z,3.65
2023-03-15T20:18:56.943Z,4.04
2023-03-15T20:21:25.283Z,3.76
2023-03-15T20:23:54.205Z,3.65
2023-03-15T20:26:24.003Z,3.63
2023-03-15T20:28:53.815Z,3.63
2023-03-15T20:31:22.080Z,3.59
2023-03-15T20:33:51.690Z,3.84
2023-03-15T20:36:20.415Z,3.01
2023-03-15T20:38:48.641Z,4.10
2023-03-15T20:41:18.412Z,4.17
2023-03-15T20:43:48.074Z,4.41
2023-03-15T20:46:19.394Z,4.33
2023-03-15T20:48:47.742Z,4.32
2023-03-15T20:51:15.915Z,4.29
2023-03-15T20:53:44.302Z,4.26
2023-03-15T20:56:12.552Z,4.25
2023-03-15T20:58:40.685Z,4.25
2023-03-15T21:01:10.677Z,4.06
2023-03-15T21:03:40.597Z,4.13
2023-03-15T21:06:09.439Z,4.14
2023-03-15T21:08:37.812Z,3.45
2023-03-15T21:11:07.434Z,3.48
2023-03-15T21:13:36.679Z,3.96
2023-03-15T21:16:05.433Z,3.97
2023-03-15T21:18:36.097Z,3.87
2023-03-15T21:21:08.382Z,3.88
2023-03-15T21:23:37.118Z,3.86
2023-03-15T21:26:08.649Z,3.82
2023-03-15T21:28:36.928Z,3.13
2023-03-15T21:31:05.681Z,3.96
2023-03-15T21:33:35.652Z,3.84
2023-03-15T21:36:06.141Z,3.45
2023-03-15T21:38:36.361Z,4.10
2023-03-15T21:41:09.326Z,4.18
2023-03-15T21:43:38.200Z,4.19
2023-03-15T21:46:08.957Z,4.15
2023-03-15T21:48:38.194Z,3.75
2023-03-15T21:51:08.333Z,3.75
2023-03-15T21:53:38.532Z,3.61
2023-03-15T21:56:07.313Z,4.06
2023-03-15T21:58:35.603Z,3.97
2023-03-15T22:01:06.387Z,3.77
2023-03-15T22:03:36.308Z,3.47
2023-03-15T22:06:05.047Z,3.64
2023-03-15T22:08:34.750Z,3.71
2023-03-15T22:11:04.790Z,3.48
2023-03-15T22:13:33.041Z,3.61
2023-03-15T22:16:01.541Z,3.55
2023-03-15T22:18:30.194Z,3.59
2023-03-15T22:20:58.449Z,3.23
2023-03-15T22:23:26.720Z,3.47
2023-03-15T22:25:57.379Z,3.32
2023-03-15T22:28:26.359Z,3.47
2023-03-15T22:30:54.977Z,3.37
2023-03-15T22:33:23.783Z,3.42
2023-03-15T22:35:56.977Z,3.51
2023-03-15T22:38:26.572Z,3.14
2023-03-15T22:41:04.136Z,3.67
2023-03-15T22:43:32.377Z,3.61
2023-03-15T22:46:00.996Z,3.98
2023-03-15T22:48:29.529Z,3.95
2023-03-15T22:51:00.068Z,3.91
2023-03-15T22:53:28.619Z,3.88
2023-03-15T22:55:56.770Z,3.86
2023-03-15T22:58:27.998Z,2.94
2023-03-15T23:00:56.379Z,3.78
2023-03-15T23:03:24.817Z,3.97
2023-03-15T23:05:53.444Z,3.95
2023-03-15T23:08:22.888Z,4.08
2023-03-15T23:10:51.688Z,4.19
2023-03-15T23:13:20.043Z,4.25
2023-03-15T23:15:49.845Z,4.28
2023-03-15T23:18:18.107Z,3.99
2023-03-15T23:20:46.045Z,4.19
2023-03-15T23:23:14.234Z,4.22
2023-03-15T23:25:43.243Z,4.22
2023-03-15T23:28:11.482Z,4.23
2023-03-15T23:30:41.473Z,4.20
2023-03-15T23:33:11.244Z,4.26
2023-03-15T23:35:39.609Z,4.23
2023-03-15T23:38:08.642Z,4.12
2023-03-15T23:40:36.954Z,3.73
2023-03-15T23:43:05.996Z,4.12
2023-03-15T23:45:34.235Z,4.22
2023-03-15T23:48:03.005Z,4.23
2023-03-15T23:50:32.501Z,3.83
2023-03-15T23:53:00.776Z,4.21
2023-03-15T23:55:29.486Z,3.92
2023-03-15T23:57:57.665Z,3.95
